Time,TemperatureF,DewpointF,PressureIn,WindDirection,WindDirectionDegrees,WindSpeedMPH,WindSpeedGustMPH,Humidity,HourlyPrecipIn,Conditions,Clouds,dailyrainin,SoftwareType,DateUTC
2013-04-16 00:02:00,46.0,45.0,29.75,NE,51,1.0,-999.0,95,-99.99,,,-99.99,,2013-04-16 05:02:00,
2013-04-16 00:12:00,46.0,45.0,29.75,NE,51,1.0,-999.0,95,-99.99,,,-99.99,,2013-04-16 05:12:00,
2013-04-16 00:22:00,46.0,45.0,29.74,NE,46,1.0,-999.0,95,-99.99,,,-99.99,,2013-04-16 05:22:00,
2013-04-16 00:32:00,45.0,43.0,29.74,East,84,2.0,-999.0,94,-99.99,,,-99.99,,2013-04-16 05:32:00,
2013-04-16 00:42:00,45.0,43.0,29.74,East,84,2.0,-999.0,94,-99.99,,,-99.99,,2013-04-16 05:42:00,
2013-04-16 00:52:00,45.0,43.0,29.78,NNW,330,1.0,-999.0,93,-99.99,,,-99.99,,2013-04-16 05:52:00,
2013-04-16 01:02:00,44.0,42.0,29.78,NNE,33,0.0,-999.0,94,-99.99,,,-99.99,,2013-04-16 06:02:00,
2013-04-16 01:12:00,44.0,42.0,29.78,NNE,33,0.0,-999.0,94,-99.99,,,-99.99,,2013-04-16 06:12:00,
2013-04-16 01:22:00,44.0,43.0,29.76,ENE,69,0.0,-999.0,95,-99.99,,,-99.99,,2013-04-16 06:22:00,
2013-04-16 01:32:00,44.0,43.0,29.80,East,79,0.0,-999.0,95,-99.99,,,-99.99,,2013-04-16 06:32:00,
2013-04-16 01:42:00,44.0,43.0,29.80,East,79,0.0,-999.0,95,-99.99,,,-99.99,,2013-04-16 06:42:00,
2013-04-16 01:52:00,44.0,43.0,29.83,WSW,254,1.0,-999.0,95,-99.99,,,-99.99,,2013-04-16 06:52:00,
2013-04-16 02:02:00,42.0,40.0,29.82,ENE,70,2.0,-999.0,93,-99.99,,,-99.99,,2013-04-16 07:02:00,
2013-04-16 02:12:00,42.0,40.0,29.82,ENE,70,2.0,-999.0,93,-99.99,,,-99.99,,2013-04-16 07:12:00,
2013-04-16 02:22:00,41.0,39.0,29.78,ENE,72,1.0,-999.0,93,-99.99,,,-99.99,,2013-04-16 07:22:00,
2013-04-16 02:32:00,41.0,39.0,29.80,NE,53,1.0,-999.0,94,-99.99,,,-99.99,,2013-04-16 07:32:00,
2013-04-16 02:42:00,41.0,39.0,29.80,NE,53,1.0,-999.0,94,-99.99,,,-99.99,,2013-04-16 07:42:00,
2013-04-16 02:53:00,41.0,39.0,29.80,NNW,348,1.0,-999.0,94,-99.99,,,-99.99,,2013-04-16 07:53:00,
2013-04-16 03:02:00,41.0,39.0,29.81,ENE,62,1.0,-999.0,94,-99.99,,,-99.99,,2013-04-16 08:02:00,
2013-04-16 03:12:00,41.0,39.0,29.81,ENE,62,1.0,-999.0,94,-99.99,,,-99.99,,2013-04-16 08:12:00,
2013-04-16 03:22:00,41.0,40.0,29.82,ENE,61,0.0,-999.0,95,-99.99,,,-99.99,,2013-04-16 08:22:00,
2013-04-16 03:32:00,41.0,40.0,29.82,NE,51,0.0,-999.0,95,-99.99,,,-99.99,,2013-04-16 08:32:00,
2013-04-16 03:42:00,41.0,40.0,29.82,NE,51,0.0,-999.0,95,-99.99,,,-99.99,,2013-04-16 08:42:00,
2013-04-16 03:52:00,41.0,40.0,29.82,West,274,0.0,-999.0,95,-99.99,,,-99.99,,2013-04-16 08:52:00,
2013-04-16 04:02:00,41.0,40.0,29.83,ENE,65,0.0,-999.0,95,-99.99,,,-99.99,,2013-04-16 09:02:00,
2013-04-16 04:12:00,41.0,40.0,29.83,ENE,65,0.0,-999.0,95,-99.99,,,-99.99,,2013-04-16 09:12:00,
2013-04-16 04:22:00,41.0,40.0,29.83,ENE,77,1.0,-999.0,95,-99.99,,,-99.99,,2013-04-16 09:22:00,
2013-04-16 04:33:00,41.0,40.0,29.86,North,355,0.0,-999.0,95,-99.99,,,-99.99,,2013-04-16 09:33:00,
2013-04-16 04:42:00,41.0,40.0,29.86,North,355,0.0,-999.0,95,-99.99,,,-99.99,,2013-04-16 09:42:00,
2013-04-16 04:53:00,41.0,40.0,29.85,NE,53,1.0,-999.0,95,-99.99,,,-99.99,,2013-04-16 09:53:00,
2013-04-16 05:03:00,41.0,40.0,29.87,NNE,25,0.0,-999.0,95,-99.99,,,-99.99,,2013-04-16 10:03:00,
2013-04-16 05:13:00,41.0,40.0,29.87,NNE,25,0.0,-999.0,95,-99.99,,,-99.99,,2013-04-16 10:13:00,
2013-04-16 05:23:00,42.0,41.0,29.85,ENE,71,1.0,-999.0,95,-99.99,,,-99.99,,2013-04-16 10:23:00,
2013-04-16 05:33:00,42.0,41.0,29.86,NE,44,0.0,-999.0,95,-99.99,,,-99.99,,2013-04-16 10:33:00,
2013-04-16 05:42:00,42.0,41.0,29.86,NE,44,0.0,-999.0,95,-99.99,,,-99.99,,2013-04-16 10:42:00,
2013-04-16 05:53:00,42.0,40.0,29.87,ENE,60,1.0,-999.0,94,-99.99,,,-99.99,,2013-04-16 10:53:00,
2013-04-16 06:02:00,42.0,40.0,29.88,ENE,77,1.0,-999.0,94,-99.99,,,-99.99,,2013-04-16 11:02:00,
2013-04-16 06:12:00,42.0,40.0,29.88,ENE,77,1.0,-999.0,94,-99.99,,,-99.99,,2013-04-16 11:12:00,
2013-04-16 06:22:00,42.0,40.0,29.89,ENE,68,0.0,-999.0,94,-99.99,,,-99.99,,2013-04-16 11:22:00,
2013-04-16 06:32:00,41.0,39.0,29.91,ENE,73,1.0,-999.0,94,-99.99,,,-99.99,,2013-04-16 11:32:00,
2013-04-16 06:42:00,41.0,39.0,29.91,ENE,73,1.0,-999.0,94,-99.99,,,-99.99,,2013-04-16 11:42:00,
2013-04-16 06:53:00,41.0,39.0,29.89,ENE,63,0.0,-999.0,94,-99.99,,,-99.99,,2013-04-16 11:53:00,
2013-04-16 07:02:00,41.0,39.0,29.91,ENE,67,0.0,-999.0,93,-99.99,,,-99.99,,2013-04-16 12:02:00,
2013-04-16 07:12:00,41.0,39.0,29.91,ENE,67,0.0,-999.0,93,-99.99,,,-99.99,,2013-04-16 12:12:00,
2013-04-16 07:22:00,41.0,39.0,29.93,East,82,0.0,-999.0,93,-99.99,,,-99.99,,2013-04-16 12:22:00,
2013-04-16 07:32:00,41.0,39.0,29.92,ENE,74,1.0,-999.0,93,-99.99,,,-99.99,,2013-04-16 12:32:00,
2013-04-16 07:42:00,41.0,39.0,29.92,ENE,74,1.0,-999.0,93,-99.99,,,-99.99,,2013-04-16 12:42:00,
2013-04-16 07:52:00,42.0,40.0,29.92,ENE,58,1.0,-999.0,93,-99.99,,,-99.99,,2013-04-16 12:52:00,
2013-04-16 08:02:00,42.0,40.0,29.92,NE,55,0.0,-999.0,93,-99.99,,,-99.99,,2013-04-16 13:02:00,
2013-04-16 08:12:00,42.0,40.0,29.92,NE,55,0.0,-999.0,93,-99.99,,,-99.99,,2013-04-16 13:12:00,
2013-04-16 08:22:00,42.0,40.0,29.93,ENE,60,1.0,-999.0,92,-99.99,,,-99.99,,2013-04-16 13:22:00,
2013-04-16 08:32:00,43.0,41.0,29.93,NE,55,1.0,-999.0,91,-99.99,,,-99.99,,2013-04-16 13:32:00,
2013-04-16 08:42:00,43.0,41.0,29.93,NE,55,1.0,-999.0,91,-99.99,,,-99.99,,2013-04-16 13:42:00,
2013-04-16 08:52:00,43.0,39.0,29.92,East,80,1.0,-999.0,86,-99.99,,,-99.99,,2013-04-16 13:52:00,
2013-04-16 09:02:00,44.0,39.0,29.93,NNE,32,1.0,-999.0,84,-99.99,,,-99.99,,2013-04-16 14:02:00,
2013-04-16 09:12:00,44.0,39.0,29.93,NNE,32,1.0,-999.0,84,-99.99,,,-99.99,,2013-04-16 14:12:00,
2013-04-16 09:22:00,44.0,39.0,29.93,ESE,103,2.0,-999.0,81,-99.99,,,-99.99,,2013-04-16 14:22:00,
2013-04-16 09:32:00,44.0,38.0,29.93,ENE,59,1.0,-999.0,80,-99.99,,,-99.99,,2013-04-16 14:32:00,
2013-04-16 09:42:00,44.0,38.0,29.93,ENE,59,1.0,-999.0,80,-99.99,,,-99.99,,2013-04-16 14:42:00,
2013-04-16 09:52:00,45.0,40.0,29.93,ENE,57,1.0,-999.0,83,-99.99,,,-99.99,,2013-04-16 14:52:00,
2013-04-16 10:02:00,45.0,39.0,29.95,ENE,74,1.0,-999.0,78,-99.99,,,-99.99,,2013-04-16 15:02:00,
2013-04-16 10:12:00,45.0,39.0,29.95,ENE,74,1.0,-999.0,78,-99.99,,,-99.99,,2013-04-16 15:12:00,
2013-04-16 10:22:00,44.0,38.0,29.97,NE,51,1.0,-999.0,79,-99.99,,,-99.99,,2013-04-16 15:22:00,
2013-04-16 10:33:00,44.0,39.0,29.97,ENE,68,0.0,-999.0,82,-99.99,,,-99.99,,2013-04-16 15:33:00,
2013-04-16 10:43:00,44.0,39.0,29.97,ENE,68,0.0,-999.0,82,-99.99,,,-99.99,,2013-04-16 15:43:00,
2013-04-16 10:53:00,44.0,39.0,29.95,East,86,0.0,-999.0,84,-99.99,,,-99.99,,2013-04-16 15:53:00,
2013-04-16 11:03:00,44.0,39.0,29.96,NE,45,0.0,-999.0,82,-99.99,,,-99.99,,2013-04-16 16:03:00,
2013-04-16 11:13:00,44.0,39.0,29.96,NE,45,0.0,-999.0,82,-99.99,,,-99.99,,2013-04-16 16:13:00,
2013-04-16 11:23:00,44.0,40.0,29.96,ENE,61,1.0,-999.0,85,-99.99,,,-99.99,,2013-04-16 16:23:00,
2013-04-16 11:32:00,44.0,39.0,29.98,ENE,57,0.0,-999.0,83,-99.99,,,-99.99,,2013-04-16 16:32:00,
2013-04-16 11:42:00,44.0,39.0,29.98,ENE,57,0.0,-999.0,83,-99.99,,,-99.99,,2013-04-16 16:42:00,
2013-04-16 11:53:00,45.0,40.0,29.98,NNW,345,0.0,-999.0,83,-99.99,,,-99.99,,2013-04-16 16:53:00,
2013-04-16 12:02:00,46.0,41.0,29.97,East,91,1.0,-999.0,81,-99.99,,,-99.99,,2013-04-16 17:02:00,
2013-04-16 12:12:00,46.0,41.0,29.97,East,91,1.0,-999.0,81,-99.99,,,-99.99,,2013-04-16 17:12:00,
2013-04-16 12:22:00,46.0,41.0,29.96,ENE,63,1.0,-999.0,81,-99.99,,,-99.99,,2013-04-16 17:22:00,
2013-04-16 12:32:00,46.0,40.0,29.95,NE,49,1.0,-999.0,80,-99.99,,,-99.99,,2013-04-16 17:32:00,
2013-04-16 12:43:00,46.0,40.0,29.95,NE,49,1.0,-999.0,80,-99.99,,,-99.99,,2013-04-16 17:43:00,
2013-04-16 12:53:00,47.0,41.0,29.97,ENE,76,1.0,-999.0,79,-99.99,,,-99.99,,2013-04-16 17:53:00,
2013-04-16 13:02:00,49.0,43.0,29.97,ENE,75,1.0,-999.0,79,-99.99,,,-99.99,,2013-04-16 18:02:00,
2013-04-16 13:12:00,50.0,42.0,29.97,East,88,1.0,-999.0,75,-99.99,,,-99.99,,2013-04-16 18:12:00,
2013-04-16 13:22:00,50.0,42.0,29.97,East,88,1.0,-999.0,75,-99.99,,,-99.99,,2013-04-16 18:22:00,
2013-04-16 13:32:00,49.0,40.0,29.97,WNW,294,2.0,-999.0,72,-99.99,,,-99.99,,2013-04-16 18:32:00,
2013-04-16 13:42:00,49.0,40.0,29.97,WNW,294,2.0,-999.0,72,-99.99,,,-99.99,,2013-04-16 18:42:00,
2013-04-16 13:52:00,50.0,41.0,29.97,SSW,199,2.0,-999.0,70,-99.99,,,-99.99,,2013-04-16 18:52:00,
2013-04-16 14:02:00,51.0,42.0,29.97,SW,218,1.0,-999.0,70,-99.99,,,-99.99,,2013-04-16 19:02:00,
2013-04-16 14:12:00,51.0,42.0,29.97,SW,218,1.0,-999.0,70,-99.99,,,-99.99,,2013-04-16 19:12:00,
2013-04-16 14:22:00,52.0,43.0,29.97,East,83,1.0,-999.0,70,-99.99,,,-99.99,,2013-04-16 19:22:00,
2013-04-16 14:32:00,52.0,43.0,29.97,East,101,1.0,-999.0,71,-99.99,,,-99.99,,2013-04-16 19:32:00,
2013-04-16 14:42:00,52.0,43.0,29.97,East,101,1.0,-999.0,71,-99.99,,,-99.99,,2013-04-16 19:42:00,
2013-04-16 14:52:00,52.0,41.0,29.97,ENE,78,2.0,-999.0,67,-99.99,,,-99.99,,2013-04-16 19:52:00,
2013-04-16 15:02:00,53.0,41.0,29.96,NNE,28,1.0,-999.0,64,-99.99,,,-99.99,,2013-04-16 20:02:00,
2013-04-16 15:12:00,53.0,41.0,29.96,NNE,28,1.0,-999.0,64,-99.99,,,-99.99,,2013-04-16 20:12:00,
2013-04-16 15:22:00,53.0,42.0,29.96,ENE,67,1.0,-999.0,65,-99.99,,,-99.99,,2013-04-16 20:22:00,
2013-04-16 15:32:00,53.0,42.0,29.94,ENE,67,1.0,-999.0,65,-99.99,,,-99.99,,2013-04-16 20:32:00,
2013-04-16 15:42:00,53.0,42.0,29.94,ENE,67,1.0,-999.0,65,-99.99,,,-99.99,,2013-04-16 20:42:00,
2013-04-16 15:52:00,54.0,41.0,29.94,NE,37,2.0,-999.0,61,-99.99,,,-99.99,,2013-04-16 20:52:00,
2013-04-16 16:02:00,52.0,41.0,29.96,ESE,103,1.0,-999.0,65,-99.99,,,-99.99,,2013-04-16 21:02:00,
2013-04-16 16:12:00,52.0,41.0,29.96,ESE,103,1.0,-999.0,65,-99.99,,,-99.99,,2013-04-16 21:12:00,
2013-04-16 16:22:00,53.0,42.0,29.95,West,267,0.0,-999.0,66,-99.99,,,-99.99,,2013-04-16 21:22:00,
2013-04-16 16:32:00,52.0,41.0,29.95,West,263,1.0,-999.0,66,-99.99,,,-99.99,,2013-04-16 21:32:00,
2013-04-16 16:43:00,52.0,41.0,29.95,West,263,1.0,-999.0,66,-99.99,,,-99.99,,2013-04-16 21:43:00,
2013-04-16 16:53:00,52.0,41.0,29.95,NNE,28,2.0,-999.0,65,-99.99,,,-99.99,,2013-04-16 21:53:00,
2013-04-16 17:02:00,52.0,41.0,29.96,NE,56,1.0,-999.0,67,-99.99,,,-99.99,,2013-04-16 22:02:00,
2013-04-16 17:13:00,52.0,41.0,29.96,NE,56,1.0,-999.0,67,-99.99,,,-99.99,,2013-04-16 22:13:00,
2013-04-16 17:22:00,52.0,41.0,29.96,West,272,1.0,-999.0,66,-99.99,,,-99.99,,2013-04-16 22:22:00,
2013-04-16 17:33:00,51.0,40.0,29.96,West,265,0.0,-999.0,66,-99.99,,,-99.99,,2013-04-16 22:33:00,
2013-04-16 17:42:00,51.0,40.0,29.96,West,265,0.0,-999.0,66,-99.99,,,-99.99,,2013-04-16 22:42:00,
2013-04-16 17:52:00,51.0,40.0,29.96,ENE,73,1.0,-999.0,66,-99.99,,,-99.99,,2013-04-16 22:52:00,
2013-04-16 18:02:00,51.0,40.0,29.96,ENE,74,0.0,-999.0,67,-99.99,,,-99.99,,2013-04-16 23:02:00,
2013-04-16 18:12:00,51.0,40.0,29.96,ENE,74,0.0,-999.0,67,-99.99,,,-99.99,,2013-04-16 23:12:00,
2013-04-16 18:22:00,51.0,41.0,29.96,NNE,22,0.0,-999.0,68,-99.99,,,-99.99,,2013-04-16 23:22:00,
2013-04-16 18:32:00,51.0,41.0,29.96,NNW,348,0.0,-999.0,69,-99.99,,,-99.99,,2013-04-16 23:32:00,
2013-04-16 18:42:00,51.0,41.0,29.96,NNW,348,0.0,-999.0,69,-99.99,,,-99.99,,2013-04-16 23:42:00,
2013-04-16 18:52:00,51.0,42.0,29.96,ENE,73,0.0,-999.0,70,-99.99,,,-99.99,,2013-04-16 23:52:00,
2013-04-16 19:02:00,51.0,42.0,29.97,ENE,74,0.0,-999.0,72,-99.99,,,-99.99,,2013-04-17 00:02:00,
2013-04-16 19:12:00,51.0,42.0,29.97,ENE,74,0.0,-999.0,72,-99.99,,,-99.99,,2013-04-17 00:12:00,
2013-04-16 19:22:00,51.0,42.0,29.97,ENE,74,0.0,-999.0,71,-99.99,,,-99.99,,2013-04-17 00:22:00,
2013-04-16 19:32:00,51.0,42.0,29.96,ENE,78,0.0,-999.0,70,-99.99,,,-99.99,,2013-04-17 00:32:00,
2013-04-16 19:42:00,51.0,42.0,29.96,ENE,78,0.0,-999.0,70,-99.99,,,-99.99,,2013-04-17 00:42:00,
2013-04-16 19:52:00,51.0,42.0,29.96,East,84,0.0,-999.0,71,-99.99,,,-99.99,,2013-04-17 00:52:00,
2013-04-16 20:02:00,51.0,43.0,29.96,SSW,210,0.0,-999.0,73,-99.99,,,-99.99,,2013-04-17 01:02:00,
2013-04-16 20:12:00,51.0,43.0,29.96,SSW,210,0.0,-999.0,73,-99.99,,,-99.99,,2013-04-17 01:12:00,
2013-04-16 20:22:00,50.0,42.0,29.97,SSE,152,0.0,-999.0,74,-99.99,,,-99.99,,2013-04-17 01:22:00,
2013-04-16 20:32:00,50.0,43.0,29.98,ESE,107,0.0,-999.0,76,-99.99,,,-99.99,,2013-04-17 01:32:00,
2013-04-16 20:42:00,50.0,43.0,29.98,ESE,107,0.0,-999.0,76,-99.99,,,-99.99,,2013-04-17 01:42:00,
2013-04-16 20:52:00,50.0,43.0,29.98,East,95,0.0,-999.0,77,-99.99,,,-99.99,,2013-04-17 01:52:00,
2013-04-16 21:02:00,50.0,43.0,29.98,East,93,0.0,-999.0,78,-99.99,,,-99.99,,2013-04-17 02:02:00,
2013-04-16 21:12:00,50.0,43.0,29.98,East,93,0.0,-999.0,78,-99.99,,,-99.99,,2013-04-17 02:12:00,
2013-04-16 21:22:00,50.0,43.0,29.98,East,93,0.0,-999.0,78,-99.99,,,-99.99,,2013-04-17 02:22:00,
2013-04-16 21:32:00,50.0,43.0,29.99,East,93,0.0,-999.0,78,-99.99,,,-99.99,,2013-04-17 02:32:00,
2013-04-16 21:42:00,50.0,43.0,29.99,East,93,0.0,-999.0,78,-99.99,,,-99.99,,2013-04-17 02:42:00,
2013-04-16 21:52:00,50.0,44.0,30.00,East,80,0.0,-999.0,79,-99.99,,,-99.99,,2013-04-17 02:52:00,
2013-04-16 22:02:00,50.0,43.0,30.00,South,179,0.0,-999.0,78,-99.99,,,-99.99,,2013-04-17 03:02:00,
2013-04-16 22:12:00,50.0,43.0,30.00,South,179,0.0,-999.0,78,-99.99,,,-99.99,,2013-04-17 03:12:00,
2013-04-16 22:22:00,50.0,44.0,30.00,North,5,0.0,-999.0,79,-99.99,,,-99.99,,2013-04-17 03:22:00,
2013-04-16 22:32:00,50.0,44.0,29.99,WSW,256,0.0,-999.0,80,-99.99,,,-99.99,,2013-04-17 03:32:00,
2013-04-16 22:42:00,50.0,44.0,29.99,WSW,256,0.0,-999.0,80,-99.99,,,-99.99,,2013-04-17 03:42:00,
2013-04-16 22:53:00,50.0,44.0,29.99,SSE,157,0.0,-999.0,80,-99.99,,,-99.99,,2013-04-17 03:53:00,
2013-04-16 23:03:00,50.0,44.0,30.00,ENE,68,0.0,-999.0,81,-99.99,,,-99.99,,2013-04-17 04:03:00,
2013-04-16 23:13:00,50.0,44.0,30.00,ENE,68,0.0,-999.0,81,-99.99,,,-99.99,,2013-04-17 04:13:00,
2013-04-16 23:22:00,50.0,44.0,30.01,WNW,290,0.0,-999.0,81,-99.99,,,-99.99,,2013-04-17 04:22:00,
2013-04-16 23:33:00,50.0,43.0,30.00,ENE,70,0.0,-999.0,77,-99.99,,,-99.99,,2013-04-17 04:33:00,
2013-04-16 23:42:00,50.0,43.0,30.00,ENE,70,0.0,-999.0,77,-99.99,,,-99.99,,2013-04-17 04:42:00,
2013-04-16 23:52:00,50.0,42.0,30.00,East,85,1.0,-999.0,74,-99.99,,,-99.99,,2013-04-17 04:52:00,